createdAt,value
2023-05-14T00:00:48.812Z,18.55
2023-05-14T00:01:48.992Z,18.42
2023-05-14T00:02:49.213Z,18.34
2023-05-14T00:03:49.335Z,18.23
2023-05-14T00:04:49.380Z,18.05
2023-05-14T00:05:49.455Z,17.89
2023-05-14T00:06:49.619Z,17.98
2023-05-14T00:07:49.805Z,18.23
2023-05-14T00:08:49.885Z,18.29
2023-05-14T00:09:50.000Z,18.40
2023-05-14T00:10:50.170Z,18.61
2023-05-14T00:11:50.290Z,18.60
2023-05-14T00:12:50.502Z,18.66
2023-05-14T00:13:50.445Z,18.78
2023-05-14T00:14:50.559Z,18.86
2023-05-14T00:15:50.840Z,19.03
2023-05-14T00:16:50.978Z,19.12
2023-05-14T00:17:51.003Z,19.26
2023-05-14T00:18:51.118Z,19.35
2023-05-14T00:19:51.222Z,19.35
2023-05-14T00:20:51.349Z,19.39
2023-05-14T00:21:51.612Z,19.19
2023-05-14T00:22:51.617Z,19.02
2023-05-14T00:23:51.785Z,19.07
2023-05-14T00:24:51.838Z,19.19
2023-05-14T00:25:51.985Z,19.25
2023-05-14T00:26:52.179Z,19.17
2023-05-14T00:27:52.306Z,19.30
2023-05-14T00:28:52.492Z,19.39
2023-05-14T00:29:52.558Z,19.60
2023-05-14T00:30:52.716Z,19.75
2023-05-14T00:31:53.051Z,19.79
2023-05-14T00:32:53.065Z,19.96
2023-05-14T00:33:53.105Z,20.26
2023-05-14T00:34:53.164Z,20.34
2023-05-14T00:35:53.297Z,20.36
2023-05-14T00:36:53.448Z,20.26
2023-05-14T00:37:53.573Z,20.34
2023-05-14T00:38:53.809Z,20.46
2023-05-14T00:39:53.929Z,20.48
2023-05-14T00:40:54.029Z,20.60
2023-05-14T00:41:54.136Z,20.54
2023-05-14T00:42:54.266Z,20.83
2023-05-14T00:43:54.422Z,20.79
2023-05-14T00:44:54.560Z,20.85
2023-05-14T00:45:54.627Z,20.60
2023-05-14T00:46:54.873Z,20.32
2023-05-14T00:47:54.959Z,19.90
2023-05-14T00:48:55.038Z,19.84
2023-05-14T00:49:55.186Z,19.48
2023-05-14T00:50:55.284Z,19.44
2023-05-14T00:51:55.385Z,19.41
2023-05-14T00:52:55.574Z,19.42
2023-05-14T00:53:55.717Z,19.50
2023-05-14T00:54:55.851Z,19.75
2023-05-14T00:55:55.898Z,19.66
2023-05-14T00:56:56.041Z,19.94
2023-05-14T00:57:56.171Z,19.86
2023-05-14T00:58:56.329Z,20.01
2023-05-14T00:59:56.486Z,20.28
2023-05-14T01:00:56.760Z,20.58
2023-05-14T01:01:56.762Z,20.93
2023-05-14T01:02:56.950Z,21.08
2023-05-14T01:03:57.096Z,21.29
2023-05-14T01:04:57.153Z,21.29
2023-05-14T01:05:57.341Z,21.25
2023-05-14T01:06:57.412Z,21.40
2023-05-14T01:07:57.612Z,21.53
2023-05-14T01:08:57.671Z,21.69
2023-05-14T01:09:57.873Z,21.80
2023-05-14T01:10:57.925Z,21.87
2023-05-14T01:11:58.014Z,21.89
2023-05-14T01:12:58.249Z,21.71
2023-05-14T01:13:58.297Z,21.73
2023-05-14T01:14:58.551Z,21.80
2023-05-14T01:15:58.668Z,21.64
2023-05-14T01:16:58.758Z,21.58
2023-05-14T01:17:58.896Z,21.60
2023-05-14T01:18:58.941Z,21.69
2023-05-14T01:19:59.047Z,21.67
2023-05-14T01:20:59.160Z,21.78
2023-05-14T01:21:59.359Z,21.82
2023-05-14T01:22:59.524Z,21.84
2023-05-14T01:23:59.578Z,22.05
2023-05-14T01:24:59.665Z,22.05
2023-05-14T01:25:59.870Z,22.19
2023-05-14T01:26:59.930Z,22.22
2023-05-14T01:28:00.100Z,22.31
2023-05-14T01:29:00.264Z,22.43
2023-05-14T01:30:00.391Z,22.40
2023-05-14T01:31:00.513Z,22.43
2023-05-14T01:32:00.721Z,22.45
2023-05-14T01:33:00.792Z,22.50
2023-05-14T01:34:00.964Z,22.55
2023-05-14T01:35:01.096Z,22.48
2023-05-14T01:36:01.270Z,22.57
2023-05-14T01:37:01.301Z,22.62
2023-05-14T01:38:01.447Z,22.55
2023-05-14T01:39:01.639Z,22.62
2023-05-14T01:40:01.825Z,22.62
2023-05-14T01:41:01.915Z,22.69
2023-05-14T01:42:02.051Z,22.33
2023-05-14T01:43:02.282Z,22.17
2023-05-14T01:44:02.247Z,22.31
2023-05-14T01:45:02.409Z,22.50
2023-05-14T01:46:02.711Z,22.36
2023-05-14T01:47:02.762Z,22.60
2023-05-14T01:48:02.826Z,22.74
2023-05-14T01:49:02.886Z,22.62
2023-05-14T01:50:03.002Z,22.55
2023-05-14T01:51:03.153Z,22.50
2023-05-14T01:52:03.228Z,22.38
2023-05-14T01:53:03.426Z,22.36
2023-05-14T01:54:03.545Z,22.48
2023-05-14T01:55:03.744Z,22.60
2023-05-14T01:56:03.790Z,22.69
2023-05-14T01:57:03.916Z,22.57
2023-05-14T01:58:04.077Z,22.50
2023-05-14T01:59:04.204Z,22.22
2023-05-14T02:00:04.295Z,22.31
2023-05-14T02:01:04.508Z,22.22
2023-05-14T02:02:04.612Z,22.45
2023-05-14T02:03:04.759Z,22.40
2023-05-14T02:04:04.889Z,22.57
2023-05-14T02:05:06.946Z,22.65
2023-05-14T02:06:05.089Z,22.55
2023-05-14T02:07:05.236Z,22.65
2023-05-14T02:08:05.339Z,22.84
2023-05-14T02:09:05.441Z,22.82
2023-05-14T02:10:05.504Z,22.89
2023-05-14T02:11:05.668Z,22.97
2023-05-14T02:12:05.787Z,22.84
2023-05-14T02:13:05.920Z,22.62
2023-05-14T02:14:06.144Z,22.62
2023-05-14T02:15:06.199Z,22.65
2023-05-14T02:16:06.399Z,22.77
2023-05-14T02:17:06.439Z,22.79
2023-05-14T02:18:06.598Z,23.07
2023-05-14T02:19:06.680Z,22.87
2023-05-14T02:20:06.917Z,22.92
2023-05-14T02:21:06.920Z,23.04
2023-05-14T02:22:07.148Z,23.22
2023-05-14T02:23:07.208Z,23.45
2023-05-14T02:24:07.354Z,23.70
2023-05-14T02:25:07.537Z,23.38
2023-05-14T02:26:07.999Z,23.38
2023-05-14T02:27:07.687Z,23.30
2023-05-14T02:28:07.826Z,23.27
2023-05-14T02:29:07.989Z,23.14
2023-05-14T02:30:08.113Z,22.94
2023-05-14T02:31:08.355Z,23.09
2023-05-14T02:32:08.429Z,23.76
2023-05-14T02:33:08.577Z,24.08
2023-05-14T02:34:08.660Z,24.52
2023-05-14T02:35:08.762Z,24.49
2023-05-14T02:36:08.915Z,24.26
2023-05-14T02:37:09.045Z,24.31
2023-05-14T02:38:09.186Z,24.58
2023-05-14T02:39:09.393Z,24.69
2023-05-14T02:40:09.441Z,24.82
2023-05-14T02:41:09.500Z,24.94
2023-05-14T02:42:09.712Z,25.01
2023-05-14T02:43:09.806Z,24.66
2023-05-14T02:44:09.909Z,24.50
2023-05-14T02:45:10.058Z,24.65
2023-05-14T02:46:10.160Z,24.79
2023-05-14T02:47:10.414Z,24.88
2023-05-14T02:48:10.470Z,25.00
2023-05-14T02:49:10.550Z,25.09
2023-05-14T02:50:10.747Z,25.21
2023-05-14T02:51:10.748Z,25.33
2023-05-14T02:52:11.006Z,25.41
2023-05-14T02:53:11.111Z,25.47
2023-05-14T02:54:11.238Z,25.21
2023-05-14T02:55:11.291Z,24.76
2023-05-14T02:56:11.369Z,24.29
2023-05-14T02:57:11.538Z,24.60
2023-05-14T02:58:11.737Z,24.68
2023-05-14T02:59:11.828Z,24.69
2023-05-14T03:00:11.923Z,24.70
2023-05-14T03:01:12.109Z,24.68
2023-05-14T03:02:12.712Z,24.90
2023-05-14T03:03:12.269Z,24.75
2023-05-14T03:04:12.392Z,24.32
2023-05-14T03:05:12.602Z,24.04
2023-05-14T03:06:12.756Z,23.81
2023-05-14T03:07:12.791Z,24.31
2023-05-14T03:08:12.962Z,25.01
2023-05-14T03:09:13.011Z,25.21
2023-05-14T03:10:13.223Z,24.91
2023-05-14T03:11:13.274Z,25.10
2023-05-14T03:12:13.412Z,25.12
2023-05-14T03:13:13.606Z,25.19
2023-05-14T03:14:13.766Z,25.61
2023-05-14T03:15:13.917Z,25.83
2023-05-14T03:16:14.016Z,26.05
2023-05-14T03:17:14.129Z,26.00
2023-05-14T03:18:14.256Z,25.91
2023-05-14T03:19:14.492Z,25.81
2023-05-14T03:20:14.571Z,25.94
2023-05-14T03:21:14.699Z,26.10
2023-05-14T03:22:14.914Z,26.23
2023-05-14T03:23:14.913Z,26.13
2023-05-14T03:24:15.005Z,26.12
2023-05-14T03:25:15.130Z,26.05
2023-05-14T03:26:15.246Z,25.73
2023-05-14T03:27:15.368Z,25.15
2023-05-14T03:28:15.512Z,25.13
2023-05-14T03:29:15.627Z,25.24
2023-05-14T03:30:15.813Z,25.61
2023-05-14T03:31:15.925Z,25.73
2023-05-14T03:32:16.017Z,25.89
2023-05-14T03:33:16.190Z,25.94
2023-05-14T03:34:16.261Z,26.05
2023-05-14T03:35:16.451Z,26.39
2023-05-14T03:36:16.632Z,26.30
2023-05-14T03:37:16.653Z,26.12
2023-05-14T03:38:16.833Z,26.10
2023-05-14T03:39:17.061Z,26.20
2023-05-14T03:40:17.029Z,26.44
2023-05-14T03:41:17.149Z,26.90
2023-05-14T03:42:17.486Z,27.25
2023-05-14T03:43:17.367Z,27.92
2023-05-14T03:44:17.533Z,28.66
2023-05-14T03:45:17.668Z,28.86
2023-05-14T03:46:17.842Z,29.52
2023-05-14T03:47:17.983Z,29.48
2023-05-14T03:48:18.136Z,29.44
2023-05-14T03:49:18.282Z,29.36
2023-05-14T03:50:18.421Z,29.36
2023-05-14T03:51:18.553Z,29.02
2023-05-14T03:52:18.629Z,28.60
2023-05-14T03:53:18.881Z,28.82
2023-05-14T03:54:18.872Z,28.66
2023-05-14T03:55:19.064Z,28.27
2023-05-14T03:56:19.122Z,28.70
2023-05-14T03:57:19.288Z,28.76
2023-05-14T03:58:19.445Z,28.35
2023-05-14T03:59:19.570Z,28.01
2023-05-14T04:00:19.685Z,27.46
2023-05-14T04:01:19.783Z,27.21
2023-05-14T04:02:19.890Z,27.14
2023-05-14T04:03:20.136Z,26.97
2023-05-14T04:04:20.201Z,27.25
2023-05-14T04:05:20.222Z,27.72
2023-05-14T04:06:20.325Z,28.22
2023-05-14T04:07:20.545Z,28.39
2023-05-14T04:08:20.655Z,28.41
2023-05-14T04:09:20.774Z,28.35
2023-05-14T04:10:20.958Z,28.27
2023-05-14T04:11:20.975Z,28.35
2023-05-14T04:12:21.113Z,28.41
2023-05-14T04:13:21.284Z,28.94
2023-05-14T04:14:21.402Z,28.94
2023-05-14T04:15:22.037Z,29.04
2023-05-14T04:16:21.671Z,29.38
2023-05-14T04:17:21.775Z,29.94
2023-05-14T04:18:21.945Z,29.99
2023-05-14T04:19:22.425Z,30.29
2023-05-14T04:20:22.314Z,30.71
2023-05-14T04:21:22.307Z,30.73
2023-05-14T04:22:22.468Z,30.55
2023-05-14T04:23:22.590Z,30.51
2023-05-14T04:24:22.768Z,30.42
2023-05-14T04:25:22.892Z,30.35
2023-05-14T04:26:22.972Z,30.78
2023-05-14T04:27:23.096Z,30.33
2023-05-14T04:28:23.205Z,30.31
2023-05-14T04:29:23.368Z,30.38
2023-05-14T04:30:23.592Z,30.42
2023-05-14T04:31:23.847Z,30.35
2023-05-14T04:32:23.790Z,30.18
2023-05-14T04:33:23.870Z,29.84
2023-05-14T04:34:24.085Z,29.24
2023-05-14T04:35:25.205Z,29.34
2023-05-14T04:36:24.378Z,30.29
2023-05-14T04:37:24.366Z,30.75
2023-05-14T04:38:24.505Z,31.54
2023-05-14T04:39:24.664Z,31.87
2023-05-14T04:40:24.982Z,32.07
2023-05-14T04:41:24.933Z,32.54
2023-05-14T04:42:25.160Z,32.84
2023-05-14T04:43:25.152Z,32.49
2023-05-14T04:44:25.295Z,31.92
2023-05-14T04:45:25.370Z,31.37
2023-05-14T04:46:25.598Z,31.23
2023-05-14T04:47:25.698Z,30.03
2023-05-14T04:48:25.878Z,30.16
2023-05-14T04:49:25.968Z,30.75
2023-05-14T04:50:26.314Z,30.29
2023-05-14T04:51:26.166Z,29.69
2023-05-14T04:52:26.284Z,30.12
2023-05-14T04:53:26.418Z,30.18
2023-05-14T04:54:27.118Z,30.14
2023-05-14T04:55:26.700Z,29.63
2023-05-14T04:56:26.743Z,29.55
2023-05-14T04:57:26.953Z,29.84
2023-05-14T04:58:27.017Z,29.42
2023-05-14T04:59:27.124Z,29.67
2023-05-14T05:00:27.471Z,29.77
2023-05-14T05:01:27.525Z,29.22
2023-05-14T05:02:27.570Z,29.18
2023-05-14T05:03:27.748Z,28.50
2023-05-14T05:04:27.800Z,28.64
2023-05-14T05:05:27.939Z,28.76
2023-05-14T05:06:28.027Z,28.16
2023-05-14T05:07:28.165Z,28.20
2023-05-14T05:08:28.359Z,28.27
2023-05-14T05:09:28.437Z,28.41
2023-05-14T05:10:28.661Z,28.29
2023-05-14T05:11:28.709Z,28.58
2023-05-14T05:12:28.823Z,28.18
2023-05-14T05:13:29.139Z,27.95
2023-05-14T05:14:29.038Z,28.47
2023-05-14T05:15:29.210Z,27.64
2023-05-14T05:16:29.361Z,27.94
2023-05-14T05:17:29.487Z,27.70
2023-05-14T05:18:29.601Z,26.68
2023-05-14T05:19:42.477Z,26.43
2023-05-14T05:20:30.892Z,26.39
2023-05-14T05:21:30.006Z,26.21
2023-05-14T05:22:30.246Z,25.70
2023-05-14T05:23:30.247Z,25.97
2023-05-14T05:24:30.453Z,26.10
2023-05-14T05:25:30.541Z,26.02
2023-05-14T05:26:30.818Z,25.78
2023-05-14T05:27:30.770Z,25.41
2023-05-14T05:28:30.966Z,24.94
2023-05-14T05:29:31.124Z,24.22
2023-05-14T05:30:31.395Z,23.99
2023-05-14T05:31:31.403Z,24.24
2023-05-14T05:32:31.669Z,24.26
2023-05-14T05:33:31.704Z,24.53
2023-05-14T05:34:31.625Z,25.28
2023-05-14T05:35:31.801Z,24.75
2023-05-14T05:36:31.959Z,24.22
2023-05-14T05:37:32.029Z,24.45
2023-05-14T05:38:32.166Z,24.97
2023-05-14T05:39:32.232Z,24.26
2023-05-14T05:40:32.343Z,22.99
2023-05-14T05:41:32.438Z,22.05
2023-05-14T05:42:32.725Z,21.58
2023-05-14T05:43:32.754Z,22.33
2023-05-14T05:44:32.878Z,22.12
2023-05-14T05:45:32.946Z,21.69
2023-05-14T05:46:33.128Z,21.91
2023-05-14T05:47:33.180Z,23.45
2023-05-14T05:48:33.391Z,25.28
2023-05-14T05:49:33.456Z,27.35
2023-05-14T05:50:33.538Z,28.45
2023-05-14T05:51:33.730Z,28.16
2023-05-14T05:52:33.922Z,28.03
2023-05-14T05:53:33.931Z,28.24
2023-05-14T05:54:34.123Z,28.05
2023-05-14T05:55:34.200Z,27.62
2023-05-14T05:56:34.469Z,26.78
2023-05-14T05:57:34.539Z,25.48
2023-05-14T05:58:35.336Z,25.95
2023-05-14T05:59:34.827Z,25.59
2023-05-14T06:00:34.948Z,25.38
2023-05-14T06:01:35.048Z,24.42
2023-05-14T06:02:35.186Z,24.78
2023-05-14T06:03:35.337Z,24.52
2023-05-14T06:04:35.457Z,23.45
2023-05-14T06:05:35.780Z,22.43
2023-05-14T06:06:35.812Z,21.71
2023-05-14T06:07:35.797Z,21.16
2023-05-14T06:08:35.971Z,21.33
2023-05-14T06:09:36.003Z,21.10
2023-05-14T06:10:36.118Z,20.09
2023-05-14T06:11:36.289Z,21.73
2023-05-14T06:12:36.500Z,21.38
2023-05-14T06:13:36.538Z,21.75
2023-05-14T06:14:36.633Z,22.10
2023-05-14T06:15:36.895Z,23.30
2023-05-14T06:16:37.025Z,23.59
2023-05-14T06:17:37.105Z,23.48
2023-05-14T06:18:37.336Z,24.36
2023-05-14T06:19:37.295Z,25.45
2023-05-14T06:20:37.548Z,24.40
2023-05-14T06:21:37.536Z,23.53
2023-05-14T06:22:37.657Z,23.77
2023-05-14T06:23:37.787Z,23.72
2023-05-14T06:24:37.870Z,24.87
2023-05-14T06:25:38.052Z,24.53
2023-05-14T06:26:38.123Z,24.59
2023-05-14T06:27:38.267Z,23.92
2023-05-14T06:28:38.389Z,22.94
2023-05-14T06:29:38.526Z,24.63
2023-05-14T06:30:38.636Z,25.65
2023-05-14T06:31:38.776Z,26.07
2023-05-14T06:32:38.887Z,24.53
2023-05-14T06:33:39.018Z,24.12
2023-05-14T06:34:39.052Z,24.04
2023-05-14T06:35:39.157Z,23.95
2023-05-14T06:36:39.482Z,23.12
2023-05-14T06:37:39.457Z,23.07
2023-05-14T06:38:39.608Z,22.17
2023-05-14T06:39:39.728Z,22.57
2023-05-14T06:40:39.824Z,22.97
2023-05-14T06:41:39.979Z,22.97
2023-05-14T06:42:40.080Z,22.36
2023-05-14T06:43:40.202Z,21.14
2023-05-14T06:44:40.308Z,20.75
2023-05-14T06:45:40.446Z,21.01
2023-05-14T06:46:40.556Z,21.36
2023-05-14T06:47:40.715Z,21.69
2023-05-14T06:48:40.802Z,21.91
2023-05-14T06:49:40.919Z,21.47
2023-05-14T06:50:41.015Z,21.69
2023-05-14T06:51:41.202Z,21.69
2023-05-14T06:52:41.310Z,21.36
2023-05-14T06:53:41.441Z,21.21
2023-05-14T06:54:41.616Z,20.54
2023-05-14T06:55:41.717Z,21.33
2023-05-14T06:56:41.844Z,21.36
2023-05-14T06:57:42.037Z,21.67
2023-05-14T06:58:42.141Z,22.08
2023-05-14T06:59:42.204Z,22.10
2023-05-14T07:00:42.340Z,21.82
2023-05-14T07:01:42.450Z,21.80
2023-05-14T07:02:42.717Z,22.26
2023-05-14T07:03:42.678Z,22.45
2023-05-14T07:04:42.850Z,22.62
2023-05-14T07:05:42.914Z,22.50
2023-05-14T07:06:43.103Z,22.38
2023-05-14T07:07:43.142Z,22.10
2023-05-14T07:08:43.288Z,22.00
2023-05-14T07:09:43.365Z,22.26
2023-05-14T07:10:43.506Z,22.19
2023-05-14T07:11:43.631Z,21.75
2023-05-14T07:12:43.814Z,21.31
2023-05-14T07:13:43.913Z,20.48
2023-05-14T07:14:44.017Z,20.79
2023-05-14T07:15:44.128Z,21.10
2023-05-14T07:16:44.376Z,21.49
2023-05-14T07:17:44.424Z,21.38
2023-05-14T07:18:44.571Z,21.27
2023-05-14T07:19:44.575Z,21.51
2023-05-14T07:20:44.703Z,21.23
2023-05-14T07:21:44.823Z,20.77
2023-05-14T07:22:44.932Z,20.36
2023-05-14T07:23:45.066Z,19.73
2023-05-14T07:24:45.177Z,19.10
2023-05-14T07:25:45.296Z,19.55
2023-05-14T07:26:45.442Z,20.32
2023-05-14T07:27:45.602Z,20.21
2023-05-14T07:28:45.713Z,20.25
2023-05-14T07:29:45.766Z,19.86
2023-05-14T07:30:45.916Z,19.68
2023-05-14T07:31:46.149Z,20.28
2023-05-14T07:32:46.204Z,20.60
2023-05-14T07:33:46.316Z,21.29
2023-05-14T07:34:46.372Z,20.97
2023-05-14T07:35:46.504Z,20.73
2023-05-14T07:36:46.698Z,20.32
2023-05-14T07:37:46.829Z,20.15
2023-05-14T07:38:46.912Z,21.04
2023-05-14T07:39:47.042Z,21.42
2023-05-14T07:40:47.151Z,21.12
2023-05-14T07:41:47.301Z,20.85
2023-05-14T07:42:47.465Z,20.99
2023-05-14T07:43:47.539Z,21.87
2023-05-14T07:44:47.668Z,22.33
2023-05-14T07:45:47.891Z,22.28
2023-05-14T07:46:47.905Z,23.40
2023-05-14T07:47:48.179Z,23.20
2023-05-14T07:48:48.202Z,23.45
2023-05-14T07:49:48.364Z,22.74
2023-05-14T07:50:48.433Z,22.74
2023-05-14T07:51:48.515Z,23.25
2023-05-14T07:52:48.669Z,22.55
2023-05-14T07:53:48.774Z,22.79
2023-05-14T07:54:50.569Z,22.89
2023-05-14T07:55:49.051Z,22.94
2023-05-14T07:56:49.204Z,23.68
2023-05-14T07:57:49.309Z,22.50
2023-05-14T07:58:49.428Z,21.78
2023-05-14T07:59:49.541Z,20.85
2023-05-14T08:00:49.695Z,22.05
2023-05-14T08:01:49.906Z,22.94
2023-05-14T08:02:50.179Z,23.04
2023-05-14T08:03:50.195Z,23.66
2023-05-14T08:04:50.161Z,23.56
2023-05-14T08:05:50.273Z,23.76
2023-05-14T08:06:50.471Z,23.04
2023-05-14T08:07:50.535Z,22.40
2023-05-14T08:08:50.655Z,22.33
2023-05-14T08:09:50.784Z,21.98
2023-05-14T08:10:50.940Z,22.36
2023-05-14T08:11:50.974Z,22.24
2023-05-14T08:12:51.102Z,21.69
2023-05-14T08:13:51.220Z,21.06
2023-05-14T08:14:51.368Z,20.81
2023-05-14T08:15:51.539Z,20.54
2023-05-14T08:16:51.695Z,20.28
2023-05-14T08:17:51.866Z,21.31
2023-05-14T08:18:51.946Z,21.67
2023-05-14T08:19:52.054Z,21.71
2023-05-14T08:20:52.189Z,22.05
2023-05-14T08:21:52.261Z,22.92
2023-05-14T08:22:52.522Z,22.36
2023-05-14T08:23:52.505Z,22.84
2023-05-14T08:24:52.645Z,23.30
2023-05-14T08:25:52.800Z,23.43
2023-05-14T08:26:52.882Z,25.70
2023-05-14T08:27:53.035Z,25.44
2023-05-14T08:28:53.153Z,26.34
2023-05-14T08:29:53.283Z,27.28
2023-05-14T08:30:53.468Z,27.35
2023-05-14T08:31:53.528Z,27.39
2023-05-14T08:32:53.679Z,27.39
2023-05-14T08:33:53.823Z,28.64
2023-05-14T08:34:53.917Z,28.12
2023-05-14T08:35:54.014Z,25.91
2023-05-14T08:36:54.182Z,27.04
2023-05-14T08:37:54.298Z,28.92
2023-05-14T08:38:54.445Z,29.42
2023-05-14T08:39:54.548Z,28.33
2023-05-14T08:40:54.628Z,27.99
2023-05-14T08:41:54.784Z,27.18
2023-05-14T08:42:54.934Z,27.99
2023-05-14T08:43:55.109Z,28.29
2023-05-14T08:44:55.160Z,29.55
2023-05-14T08:45:55.276Z,28.20
2023-05-14T08:46:55.387Z,28.82
2023-05-14T08:47:55.787Z,28.74
2023-05-14T08:48:55.681Z,30.78
2023-05-14T08:49:55.802Z,30.91
2023-05-14T08:50:55.936Z,30.01
2023-05-14T08:51:56.022Z,29.24
2023-05-14T08:52:56.184Z,31.05
2023-05-14T08:53:56.296Z,29.40
2023-05-14T08:54:56.365Z,27.88
2023-05-14T08:55:56.589Z,28.60
2023-05-14T08:56:56.772Z,27.99
2023-05-14T08:57:56.778Z,26.26
2023-05-14T08:58:56.924Z,24.68
2023-05-14T08:59:57.052Z,27.14
2023-05-14T09:00:57.199Z,28.98
2023-05-14T09:01:57.276Z,28.74
2023-05-14T09:02:57.464Z,28.66
2023-05-14T09:03:57.570Z,27.18
2023-05-14T09:04:57.683Z,28.33
2023-05-14T09:05:59.973Z,28.98
2023-05-14T09:06:57.924Z,27.64
2023-05-14T09:07:58.076Z,29.28
2023-05-14T09:08:58.207Z,30.23
2023-05-14T09:09:58.338Z,28.52
2023-05-14T09:10:58.472Z,27.55
2023-05-14T09:11:58.540Z,27.16
2023-05-14T09:12:58.708Z,24.69
2023-05-14T09:13:58.894Z,24.04
2023-05-14T09:14:59.013Z,27.06
2023-05-14T09:15:59.150Z,26.07
2023-05-14T09:16:59.394Z,24.45
2023-05-14T09:17:59.373Z,23.85
2023-05-14T09:18:59.518Z,24.88
2023-05-14T09:19:59.664Z,28.88
2023-05-14T09:20:59.733Z,31.70
2023-05-14T09:21:59.947Z,32.59
2023-05-14T09:22:59.971Z,33.26
2023-05-14T09:24:00.161Z,33.26
2023-05-14T09:25:00.276Z,33.15
2023-05-14T09:26:00.381Z,34.26
2023-05-14T09:27:00.510Z,32.29
2023-05-14T09:28:00.674Z,32.04
2023-05-14T09:29:00.774Z,33.18
2023-05-14T09:30:00.892Z,33.37
2023-05-14T09:31:01.005Z,35.30
2023-05-14T09:32:01.135Z,34.83
2023-05-14T09:33:01.299Z,33.79
2023-05-14T09:34:01.384Z,35.15
2023-05-14T09:35:01.516Z,35.35
2023-05-14T09:36:01.655Z,36.52
2023-05-14T09:37:01.850Z,37.83
2023-05-14T09:38:01.968Z,37.33
2023-05-14T09:39:02.027Z,33.60
2023-05-14T09:40:02.129Z,34.94
2023-05-14T09:41:02.284Z,33.13
2023-05-14T09:42:02.370Z,32.22
2023-05-14T09:43:02.500Z,33.26
2023-05-14T09:44:04.160Z,33.31
2023-05-14T09:45:02.752Z,34.89
2023-05-14T09:46:02.889Z,33.79
2023-05-14T09:47:03.306Z,33.39
2023-05-14T09:48:03.370Z,33.34
2023-05-14T09:49:03.214Z,37.70
2023-05-14T09:50:03.337Z,37.63
2023-05-14T09:51:04.749Z,36.46
2023-05-14T09:52:03.658Z,33.58
2023-05-14T09:53:03.725Z,31.56
2023-05-14T09:54:03.901Z,32.77
2023-05-14T09:55:04.008Z,32.39
2023-05-14T09:56:04.185Z,36.87
2023-05-14T09:57:04.288Z,34.97
2023-05-14T09:58:04.420Z,31.33
2023-05-14T09:59:04.561Z,35.24
2023-05-14T10:00:04.670Z,38.14
2023-05-14T10:01:04.907Z,41.66
2023-05-14T10:02:04.937Z,42.24
2023-05-14T10:03:05.156Z,40.69
2023-05-14T10:04:05.251Z,38.01
2023-05-14T10:05:05.338Z,39.96
2023-05-14T10:06:05.488Z,38.96
2023-05-14T10:07:05.585Z,39.25
2023-05-14T10:08:05.766Z,42.03
2023-05-14T10:09:05.850Z,44.24
2023-05-14T10:10:05.972Z,44.95
2023-05-14T10:11:06.183Z,44.81
2023-05-14T10:12:06.221Z,45.05
2023-05-14T10:13:06.342Z,41.70
2023-05-14T10:14:06.571Z,44.62
2023-05-14T10:15:06.598Z,44.62
2023-05-14T10:16:06.763Z,45.19
2023-05-14T10:17:06.879Z,39.88
2023-05-14T10:18:06.989Z,36.94
2023-05-14T10:19:07.280Z,39.92
2023-05-14T10:20:07.214Z,41.99
2023-05-14T10:21:07.328Z,41.82
2023-05-14T10:22:07.510Z,37.83
2023-05-14T10:23:07.554Z,34.77
2023-05-14T10:24:07.700Z,39.84
2023-05-14T10:25:07.810Z,39.28
2023-05-14T10:26:07.912Z,39.39
2023-05-14T10:27:08.091Z,39.32
2023-05-14T10:28:08.168Z,41.25
2023-05-14T10:29:08.324Z,39.96
2023-05-14T10:30:08.435Z,37.37
2023-05-14T10:31:08.680Z,38.81
2023-05-14T10:32:08.741Z,36.87
2023-05-14T10:33:08.963Z,41.74
2023-05-14T10:34:08.975Z,38.28
2023-05-14T10:35:09.074Z,34.86
2023-05-14T10:36:09.202Z,33.96
2023-05-14T10:37:09.321Z,37.10
2023-05-14T10:38:09.456Z,38.71
2023-05-14T10:39:09.548Z,41.13
2023-05-14T10:40:09.652Z,43.37
2023-05-14T10:41:09.752Z,38.96
2023-05-14T10:42:09.887Z,43.42
2023-05-14T10:43:10.061Z,44.43
2023-05-14T10:44:10.193Z,47.57
2023-05-14T10:45:10.269Z,43.06
2023-05-14T10:46:10.441Z,36.94
2023-05-14T10:47:10.552Z,32.39
2023-05-14T10:48:10.684Z,34.77
2023-05-14T10:49:10.744Z,33.39
2023-05-14T10:50:10.923Z,38.74
2023-05-14T10:51:11.091Z,43.06
2023-05-14T10:52:11.153Z,42.24
2023-05-14T10:53:11.284Z,41.49
2023-05-14T10:54:11.404Z,42.03
2023-05-14T10:55:11.494Z,45.34
2023-05-14T10:56:11.614Z,46.18
2023-05-14T10:57:11.690Z,44.29
2023-05-14T10:58:11.821Z,45.39
2023-05-14T10:59:11.865Z,47.70
2023-05-14T11:00:11.995Z,45.19
2023-05-14T11:01:12.199Z,40.69
2023-05-14T11:02:12.277Z,43.78
2023-05-14T11:03:12.607Z,47.78
2023-05-14T11:04:12.627Z,52.01
2023-05-14T11:05:12.636Z,51.34
2023-05-14T11:06:12.746Z,49.53
2023-05-14T11:07:12.914Z,50.60
2023-05-14T11:08:13.011Z,53.84
2023-05-14T11:09:13.115Z,48.28
2023-05-14T11:10:13.248Z,47.01
2023-05-14T11:11:13.955Z,49.18
2023-05-14T11:12:13.473Z,51.28
2023-05-14T11:13:13.587Z,52.89
2023-05-14T11:14:13.677Z,55.22
2023-05-14T11:15:13.783Z,51.12
2023-05-14T11:16:22.712Z,50.94
2023-05-14T11:17:15.127Z,52.73
2023-05-14T11:18:14.379Z,54.33
2023-05-14T11:19:14.310Z,56.83
2023-05-14T11:20:14.397Z,60.21
2023-05-14T11:21:14.522Z,62.96
2023-05-14T11:22:14.627Z,64.01
2023-05-14T11:23:14.773Z,63.10
2023-05-14T11:24:14.835Z,62.86
2023-05-14T11:25:15.216Z,58.49
2023-05-14T11:26:15.124Z,54.22
2023-05-14T11:27:15.185Z,53.98
2023-05-14T11:28:15.381Z,54.83
2023-05-14T11:29:15.485Z,55.70
2023-05-14T11:30:15.649Z,57.49
2023-05-14T11:31:15.827Z,56.33
2023-05-14T11:32:15.854Z,55.01
2023-05-14T11:33:16.122Z,60.12
2023-05-14T11:34:16.090Z,62.44
2023-05-14T11:35:16.199Z,62.96
2023-05-14T11:36:16.404Z,65.71
2023-05-14T11:37:16.449Z,66.97
2023-05-14T11:38:16.544Z,66.18
2023-05-14T11:39:16.761Z,66.23
2023-05-14T11:40:17.013Z,63.10
2023-05-14T11:41:17.003Z,60.25
2023-05-14T11:42:17.193Z,64.80
2023-05-14T11:43:17.311Z,58.65
2023-05-14T11:44:17.366Z,58.98
2023-05-14T11:45:17.505Z,62.30
2023-05-14T11:46:17.680Z,61.98
2023-05-14T11:47:17.760Z,57.41
2023-05-14T11:48:17.883Z,57.84
2023-05-14T11:49:17.956Z,52.66
2023-05-14T11:50:18.053Z,51.82
2023-05-14T11:51:18.200Z,57.14
2023-05-14T11:52:18.311Z,61.04
2023-05-14T11:53:18.478Z,63.53
2023-05-14T11:54:18.513Z,65.82
2023-05-14T11:55:18.642Z,69.92
2023-05-14T11:56:18.751Z,71.10
2023-05-14T11:57:18.846Z,70.68
2023-05-14T11:58:18.999Z,74.18
2023-05-14T11:59:20.624Z,76.54
2023-05-14T12:00:19.320Z,78.69
2023-05-14T12:01:19.382Z,73.53
2023-05-14T12:02:19.569Z,70.27
2023-05-14T12:03:19.840Z,66.86
2023-05-14T12:04:19.844Z,68.16
2023-05-14T12:05:19.973Z,67.94
2023-05-14T12:06:20.028Z,72.64
2023-05-14T12:07:20.147Z,74.84
2023-05-14T12:08:20.269Z,74.71
2023-05-14T12:09:20.411Z,78.69
2023-05-14T12:10:20.539Z,80.58
2023-05-14T12:11:20.706Z,75.51
2023-05-14T12:12:20.750Z,73.02
2023-05-14T12:13:20.849Z,70.92
2023-05-14T12:14:20.969Z,72.26
2023-05-14T12:15:21.088Z,77.89
2023-05-14T12:16:21.262Z,81.36
2023-05-14T12:17:21.435Z,77.89
2023-05-14T12:18:25.073Z,80.19
2023-05-14T12:19:21.630Z,83.46
2023-05-14T12:20:21.869Z,81.28
2023-05-14T12:21:21.892Z,82.47
2023-05-14T12:22:21.999Z,82.96
2023-05-14T12:23:22.175Z,84.38
2023-05-14T12:24:22.198Z,105.34
2023-05-14T12:25:22.308Z,109.03
2023-05-14T12:26:22.591Z,121.57
2023-05-14T12:27:22.541Z,127.95
2023-05-14T12:28:22.662Z,114.37
2023-05-14T12:29:22.766Z,122.81
2023-05-14T12:30:22.939Z,120.35
2023-05-14T12:31:23.114Z,117.90
2023-05-14T12:32:23.223Z,123.08
2023-05-14T12:33:23.254Z,127.27
2023-05-14T12:34:23.399Z,121.48
2023-05-14T12:35:23.858Z,134.61
2023-05-14T12:36:23.641Z,137.13
2023-05-14T12:37:23.750Z,145.44
2023-05-14T12:38:23.848Z,111.05
2023-05-14T12:39:24.018Z,132.38
2023-05-14T12:40:24.471Z,143.94
2023-05-14T12:41:24.268Z,120.35
2023-05-14T12:42:24.376Z,120.18
2023-05-14T12:43:24.466Z,125.09
2023-05-14T12:44:24.769Z,123.71
2023-05-14T12:45:24.974Z,127.56
2023-05-14T12:46:24.886Z,100.97
2023-05-14T12:47:25.039Z,94.66
2023-05-14T12:48:25.304Z,108.89
2023-05-14T12:49:25.415Z,115.15
2023-05-14T12:50:25.673Z,119.07
2023-05-14T12:51:25.567Z,124.63
2023-05-14T12:52:36.920Z,139.99
2023-05-14T12:53:26.766Z,149.84